createdAt,value
2022-10-01T00:01:51.285Z,8.37
2022-10-01T00:04:19.265Z,8.34
2022-10-01T00:06:47.468Z,8.31
2022-10-01T00:09:16.079Z,8.29
2022-10-01T00:11:45.407Z,8.27
2022-10-01T00:14:13.477Z,8.31
2022-10-01T00:16:41.552Z,8.26
2022-10-01T00:19:13.301Z,8.23
2022-10-01T00:21:41.478Z,8.20
2022-10-01T00:24:12.864Z,8.17
2022-10-01T00:26:41.413Z,8.16
2022-10-01T00:29:13.620Z,8.11
2022-10-01T00:31:41.891Z,8.10
2022-10-01T00:34:11.152Z,8.10
2022-10-01T00:36:39.210Z,8.10
2022-10-01T00:39:07.282Z,8.04
2022-10-01T00:41:36.072Z,8.10
2022-10-01T00:44:20.483Z,8.07
2022-10-01T00:46:49.895Z,8.07
2022-10-01T00:49:20.169Z,8.07
2022-10-01T00:51:50.817Z,8.06
2022-10-01T00:54:24.094Z,8.06
2022-10-01T00:56:53.275Z,8.03
2022-10-01T00:59:21.837Z,8.04
2022-10-01T01:01:51.320Z,7.99
2022-10-01T01:04:19.532Z,7.97
2022-10-01T01:06:51.493Z,7.97
2022-10-01T01:09:19.696Z,7.99
2022-10-01T01:11:51.842Z,8.03
2022-10-01T01:14:24.089Z,8.03
2022-10-01T01:17:01.277Z,8.00
2022-10-01T01:19:41.207Z,8.06
2022-10-01T01:22:11.695Z,8.11
2022-10-01T01:24:48.614Z,8.13
2022-10-01T01:27:29.661Z,8.17
2022-10-01T01:30:03.737Z,8.20
2022-10-01T01:32:36.264Z,8.23
2022-10-01T01:35:05.680Z,8.24
2022-10-01T01:37:36.078Z,8.23
2022-10-01T01:40:06.738Z,8.23
2022-10-01T01:42:36.730Z,8.19
2022-10-01T01:45:09.922Z,8.14
2022-10-01T01:47:39.523Z,8.06
2022-10-01T01:50:08.555Z,7.94
2022-10-01T01:52:36.896Z,7.86
2022-10-01T01:55:07.435Z,7.79
2022-10-01T01:57:37.941Z,7.73
2022-10-01T02:00:08.713Z,7.68
2022-10-01T02:02:39.265Z,7.66
2022-10-01T02:05:10.573Z,7.62
2022-10-01T02:07:55.937Z,7.59
2022-10-01T02:10:34.591Z,7.56
2022-10-01T02:13:20.225Z,7.52
2022-10-01T02:15:59.699Z,7.47
2022-10-01T02:18:31.459Z,7.45
2022-10-01T02:21:05.373Z,7.42
2022-10-01T02:23:35.762Z,7.40
2022-10-01T02:26:08.371Z,7.40
2022-10-01T02:28:39.242Z,7.36
2022-10-01T02:31:09.150Z,7.34
2022-10-01T02:33:37.376Z,7.36
2022-10-01T02:36:07.606Z,7.44
2022-10-01T02:38:38.482Z,7.45
2022-10-01T02:41:09.158Z,7.44
2022-10-01T02:43:42.906Z,7.50
2022-10-01T02:46:15.813Z,7.52
2022-10-01T02:48:44.311Z,7.61
2022-10-01T02:51:25.999Z,7.66
2022-10-01T02:53:57.516Z,7.72
2022-10-01T02:56:48.342Z,7.81
2022-10-01T02:59:16.987Z,7.90
2022-10-01T03:01:47.097Z,7.96
2022-10-01T03:04:15.135Z,8.04
2022-10-01T03:06:43.051Z,8.13
2022-10-01T03:09:11.020Z,8.16
2022-10-01T03:11:39.092Z,8.23
2022-10-01T03:14:07.499Z,8.26
2022-10-01T03:16:35.476Z,8.26
2022-10-01T03:19:04.952Z,8.30
2022-10-01T03:21:33.175Z,8.30
2022-10-01T03:24:01.541Z,8.33
2022-10-01T03:26:29.631Z,8.41
2022-10-01T03:28:57.574Z,8.40
2022-10-01T03:31:25.569Z,8.44
2022-10-01T03:33:53.612Z,8.42
2022-10-01T03:36:22.911Z,8.48
2022-10-01T03:38:50.840Z,8.50
2022-10-01T03:41:18.830Z,8.44
2022-10-01T03:43:46.755Z,8.42
2022-10-01T03:46:14.979Z,8.45
2022-10-01T03:48:43.042Z,8.40
2022-10-01T03:51:11.053Z,8.38
2022-10-01T03:53:40.360Z,8.38
2022-10-01T03:56:08.440Z,8.36
2022-10-01T03:58:36.442Z,8.33
2022-10-01T04:01:04.367Z,8.36
2022-10-01T04:03:32.456Z,8.36
2022-10-01T04:06:00.406Z,8.42
2022-10-01T04:08:28.920Z,8.42
2022-10-01T04:10:58.400Z,8.44
2022-10-01T04:13:26.403Z,8.44
2022-10-01T04:15:54.403Z,8.42
2022-10-01T04:18:22.504Z,8.45
2022-10-01T04:20:50.516Z,8.47
2022-10-01T04:23:18.617Z,8.44
2022-10-01T04:25:46.692Z,8.42
2022-10-01T04:28:16.357Z,8.41
2022-10-01T04:30:46.958Z,8.44
2022-10-01T04:33:17.101Z,8.44
2022-10-01T04:35:45.915Z,8.40
2022-10-01T04:38:16.413Z,8.40
2022-10-01T04:40:44.549Z,8.42
2022-10-01T04:43:13.349Z,8.44
2022-10-01T04:45:42.602Z,8.44
2022-10-01T04:48:10.607Z,8.44
2022-10-01T04:50:38.781Z,8.47
2022-10-01T04:53:06.764Z,8.41
2022-10-01T04:55:35.001Z,8.45
2022-10-01T04:58:03.191Z,8.44
2022-10-01T05:00:31.216Z,8.44
2022-10-01T05:03:00.507Z,8.45
2022-10-01T05:05:29.227Z,8.50
2022-10-01T05:07:57.451Z,8.50
2022-10-01T05:10:26.237Z,8.51
2022-10-01T05:12:54.684Z,8.50
2022-10-01T05:15:22.676Z,8.58
2022-10-01T05:17:50.728Z,8.61
2022-10-01T05:20:22.086Z,8.65
2022-10-01T05:22:50.433Z,8.67
2022-10-01T05:25:19.171Z,8.68
2022-10-01T05:27:47.342Z,8.72
2022-10-01T05:30:20.095Z,8.73
2022-10-01T05:32:56.198Z,8.78
2022-10-01T05:35:25.999Z,8.76
2022-10-01T05:37:55.353Z,8.76
2022-10-01T05:40:27.525Z,8.73
2022-10-01T05:42:56.027Z,8.72
2022-10-01T05:45:24.268Z,8.75
2022-10-01T05:47:59.648Z,8.72
2022-10-01T05:50:31.229Z,8.79
2022-10-01T05:52:59.862Z,8.81
2022-10-01T05:55:34.704Z,8.85
2022-10-01T05:58:04.632Z,8.92
2022-10-01T06:00:33.316Z,8.96
2022-10-01T06:03:02.753Z,8.99
2022-10-01T06:05:33.459Z,9.00
2022-10-01T06:08:01.886Z,9.03
2022-10-01T06:10:30.315Z,9.05
2022-10-01T06:13:00.334Z,9.12
2022-10-01T06:15:28.787Z,9.13
2022-10-01T06:17:56.787Z,9.20
2022-10-01T06:20:24.845Z,9.22
2022-10-01T06:22:58.739Z,9.24
2022-10-01T06:25:28.388Z,9.31
2022-10-01T06:27:58.855Z,9.34
2022-10-01T06:30:27.981Z,9.37
2022-10-01T06:33:01.213Z,9.46
2022-10-01T06:35:29.217Z,9.44
2022-10-01T06:37:58.508Z,9.44
2022-10-01T06:40:26.556Z,9.44
2022-10-01T06:42:58.426Z,9.44
2022-10-01T06:45:27.802Z,9.46
2022-10-01T06:47:56.300Z,9.51
2022-10-01T06:50:24.889Z,9.54
2022-10-01T06:52:54.110Z,9.51
2022-10-01T06:55:25.618Z,9.55
2022-10-01T06:57:55.595Z,9.58
2022-10-01T07:00:24.145Z,9.61
2022-10-01T07:02:52.865Z,9.58
2022-10-01T07:05:21.029Z,9.57
2022-10-01T07:07:49.342Z,9.57
2022-10-01T07:10:20.866Z,9.61
2022-10-01T07:12:51.026Z,9.65
2022-10-01T07:15:22.642Z,9.70
2022-10-01T07:17:52.265Z,9.74
2022-10-01T07:20:21.432Z,9.74
2022-10-01T07:22:49.955Z,9.78
2022-10-01T07:25:18.035Z,9.82
2022-10-01T07:27:46.053Z,9.87
2022-10-01T07:30:15.634Z,9.89
2022-10-01T07:32:44.700Z,9.94
2022-10-01T07:35:12.836Z,9.99
2022-10-01T07:37:41.328Z,10.05
2022-10-01T07:40:10.223Z,10.16
2022-10-01T07:42:38.822Z,10.25
2022-10-01T07:45:08.082Z,10.34
2022-10-01T07:47:37.660Z,10.47
2022-10-01T07:50:07.347Z,10.52
2022-10-01T07:52:35.317Z,10.56
2022-10-01T07:55:03.376Z,10.57
2022-10-01T07:57:31.588Z,10.61
2022-10-01T07:59:59.885Z,10.66
2022-10-01T08:02:28.024Z,10.70
2022-10-01T08:05:15.275Z,10.73
2022-10-01T08:07:43.250Z,10.77
2022-10-01T08:10:11.349Z,10.84
2022-10-01T08:12:39.514Z,10.84
2022-10-01T08:15:10.287Z,10.89
2022-10-01T08:17:38.843Z,10.95
2022-10-01T08:20:10.707Z,10.99
2022-10-01T08:22:42.045Z,11.04
2022-10-01T08:25:11.031Z,11.07
2022-10-01T08:27:39.065Z,11.14
2022-10-01T08:30:08.362Z,11.22
2022-10-01T08:32:36.303Z,11.28
2022-10-01T08:35:05.063Z,11.35
2022-10-01T08:37:34.837Z,11.40
2022-10-01T08:40:03.170Z,11.46
2022-10-01T08:42:52.585Z,11.53
2022-10-01T08:45:24.921Z,11.63
2022-10-01T08:47:57.281Z,11.73
2022-10-01T08:50:30.241Z,11.87
2022-10-01T08:53:08.003Z,12.08
2022-10-01T08:55:37.455Z,12.17
2022-10-01T08:58:07.461Z,12.29
2022-10-01T09:00:37.127Z,12.31
2022-10-01T09:03:06.682Z,12.24
2022-10-01T09:05:41.723Z,12.17
2022-10-01T09:08:18.411Z,12.17
2022-10-01T09:10:48.382Z,12.14
2022-10-01T09:13:30.212Z,12.18
2022-10-01T09:16:01.143Z,12.22
2022-10-01T09:18:38.433Z,12.17
2022-10-01T09:21:13.566Z,12.15
2022-10-01T09:23:51.729Z,12.12
2022-10-01T09:26:23.551Z,12.08
2022-10-01T09:28:55.700Z,12.01
2022-10-01T09:31:30.180Z,11.93
2022-10-01T09:34:02.740Z,11.86
2022-10-01T09:36:36.121Z,11.77
2022-10-01T09:39:13.837Z,11.70
2022-10-01T09:41:41.821Z,11.63
2022-10-01T09:44:18.729Z,11.59
2022-10-01T09:46:47.429Z,11.57
2022-10-01T09:49:24.198Z,11.53
2022-10-01T09:51:55.411Z,11.55
2022-10-01T09:54:31.159Z,11.55
2022-10-01T09:57:02.654Z,11.52
2022-10-01T09:59:32.831Z,11.50
2022-10-01T10:02:02.513Z,11.45
2022-10-01T10:04:31.050Z,11.43
2022-10-01T10:07:03.934Z,11.39
2022-10-01T10:09:34.812Z,11.29
2022-10-01T10:12:03.489Z,11.22
2022-10-01T10:14:33.600Z,11.15
2022-10-01T10:17:05.679Z,11.07
2022-10-01T10:19:34.121Z,11.01
2022-10-01T10:22:11.943Z,10.97
2022-10-01T10:24:41.330Z,10.92
2022-10-01T10:27:24.922Z,10.83
2022-10-01T10:30:02.748Z,10.80
2022-10-01T10:32:30.928Z,10.77
2022-10-01T10:35:03.686Z,10.71
2022-10-01T10:37:34.256Z,10.68
2022-10-01T10:40:04.842Z,10.70
2022-10-01T10:42:33.359Z,10.67
2022-10-01T10:45:04.222Z,10.63
2022-10-01T10:47:33.224Z,10.68
2022-10-01T10:50:04.393Z,10.71
2022-10-01T10:52:36.327Z,10.73
2022-10-01T10:55:23.634Z,10.74
2022-10-01T10:57:57.266Z,10.74
2022-10-01T11:00:26.860Z,10.76
2022-10-01T11:02:57.341Z,10.77
2022-10-01T11:05:27.410Z,10.76
2022-10-01T11:07:58.386Z,10.81
2022-10-01T11:10:35.656Z,10.77
2022-10-01T11:13:21.252Z,10.80
2022-10-01T11:16:01.599Z,10.85
2022-10-01T11:18:51.939Z,10.84
2022-10-01T11:21:34.307Z,10.87
2022-10-01T11:24:11.491Z,10.87
2022-10-01T11:26:51.676Z,10.87
2022-10-01T11:29:31.699Z,10.88
2022-10-01T11:32:05.290Z,10.88
2022-10-01T11:35:09.839Z,10.88
2022-10-01T11:37:48.289Z,10.94
2022-10-01T11:40:20.563Z,10.94
2022-10-01T11:42:50.936Z,10.97
2022-10-01T11:45:22.078Z,10.97
2022-10-01T11:47:53.069Z,10.99
2022-10-01T11:50:25.139Z,10.97
2022-10-01T11:52:55.680Z,10.99
2022-10-01T11:55:43.711Z,11.04
2022-10-01T11:58:46.633Z,11.08
2022-10-01T12:01:14.980Z,11.07
2022-10-01T12:03:54.241Z,11.05
2022-10-01T12:06:27.528Z,10.99
2022-10-01T12:09:00.318Z,10.95
2022-10-01T12:11:32.952Z,10.87
2022-10-01T12:14:05.752Z,10.85
2022-10-01T12:16:42.256Z,10.78
2022-10-01T12:19:14.561Z,10.71
2022-10-01T12:21:44.853Z,10.73
2022-10-01T12:24:14.182Z,10.74
2022-10-01T12:26:50.412Z,10.74
2022-10-01T12:29:23.010Z,10.76
2022-10-01T12:31:55.937Z,10.74
2022-10-01T12:34:33.491Z,10.76
2022-10-01T12:37:10.331Z,10.81
2022-10-01T12:39:47.166Z,10.81
2022-10-01T12:42:31.613Z,10.83
2022-10-01T12:45:06.703Z,10.81
2022-10-01T12:47:43.133Z,10.85
2022-10-01T12:50:23.614Z,10.94
2022-10-01T12:53:01.554Z,10.99
2022-10-01T12:55:47.414Z,11.02
2022-10-01T12:58:22.015Z,11.07
2022-10-01T13:00:55.066Z,11.11
2022-10-01T13:03:48.382Z,11.15
2022-10-01T13:06:25.392Z,11.21
2022-10-01T13:09:04.661Z,11.32
2022-10-01T13:11:46.375Z,11.36
2022-10-01T13:14:17.383Z,11.42
2022-10-01T13:16:50.367Z,11.50
2022-10-01T13:19:21.550Z,11.56
2022-10-01T13:22:00.697Z,11.64
2022-10-01T13:24:34.158Z,11.73
2022-10-01T13:27:06.057Z,11.77
2022-10-01T13:29:48.520Z,11.86
2022-10-01T13:32:29.769Z,11.94
2022-10-01T13:34:58.872Z,12.07
2022-10-01T13:37:38.234Z,12.17
2022-10-01T13:40:22.861Z,12.25
2022-10-01T13:42:52.231Z,12.36
2022-10-01T13:45:31.940Z,12.49
2022-10-01T13:48:14.291Z,12.66
2022-10-01T13:50:43.063Z,12.77
2022-10-01T13:53:16.517Z,12.76
2022-10-01T13:55:46.713Z,12.76
2022-10-01T13:58:23.533Z,12.72
2022-10-01T14:00:53.084Z,12.75
2022-10-01T14:03:36.123Z,12.73
2022-10-01T14:06:06.066Z,12.66
2022-10-01T14:08:39.445Z,12.63
2022-10-01T14:11:28.869Z,12.59
2022-10-01T14:14:29.666Z,12.56
2022-10-01T14:16:58.064Z,12.53
2022-10-01T14:19:28.381Z,12.55
2022-10-01T14:22:18.717Z,12.55
2022-10-01T14:25:01.398Z,12.53
2022-10-01T14:27:35.215Z,12.51
2022-10-01T14:30:07.446Z,12.53
2022-10-01T14:32:48.151Z,12.56
2022-10-01T14:35:26.520Z,12.59
2022-10-01T14:38:00.215Z,12.61
2022-10-01T14:40:37.201Z,12.65
2022-10-01T14:43:20.570Z,12.72
2022-10-01T14:45:56.961Z,12.76
2022-10-01T14:48:25.632Z,12.76
2022-10-01T14:50:58.399Z,12.77
2022-10-01T14:53:28.374Z,12.77
2022-10-01T14:55:58.456Z,12.77
2022-10-01T14:58:29.763Z,12.79
2022-10-01T15:00:58.958Z,12.76
2022-10-01T15:03:27.058Z,12.73
2022-10-01T15:06:04.563Z,12.75
2022-10-01T15:08:40.393Z,12.76
2022-10-01T15:11:10.220Z,12.79
2022-10-01T15:13:40.456Z,12.80
2022-10-01T15:16:13.011Z,12.86
2022-10-01T15:18:43.952Z,12.86
2022-10-01T15:21:16.575Z,12.86
2022-10-01T15:23:44.525Z,12.86
2022-10-01T15:26:15.248Z,12.87
2022-10-01T15:28:44.432Z,12.90
2022-10-01T15:31:12.578Z,12.93
2022-10-01T15:36:36.457Z,12.90
2022-10-01T15:39:05.800Z,12.89
2022-10-01T15:41:34.803Z,12.87
2022-10-01T15:44:04.847Z,12.89
2022-10-01T15:46:35.412Z,12.90
2022-10-01T15:49:28.432Z,12.83
2022-10-01T15:52:16.988Z,12.79
2022-10-01T15:54:46.069Z,12.79
2022-10-01T15:57:20.139Z,12.75
2022-10-01T15:59:48.715Z,12.77
2022-10-01T16:02:20.816Z,12.76
2022-10-01T16:04:49.115Z,12.72
2022-10-01T16:07:23.495Z,12.70
2022-10-01T16:09:58.176Z,12.66
2022-10-01T16:12:28.556Z,12.65
2022-10-01T16:15:00.238Z,12.61
2022-10-01T16:17:34.858Z,12.53
2022-10-01T16:20:39.263Z,12.49
2022-10-01T16:23:35.663Z,12.39
2022-10-01T16:26:04.883Z,12.33
2022-10-01T16:28:34.406Z,12.29
2022-10-01T16:31:04.740Z,12.29
2022-10-01T16:33:32.799Z,12.22
2022-10-01T16:36:09.899Z,12.18
2022-10-01T16:38:39.180Z,12.14
2022-10-01T16:41:07.258Z,12.11
2022-10-01T16:43:35.184Z,12.07
2022-10-01T16:46:03.165Z,12.08
2022-10-01T16:48:31.134Z,12.04
2022-10-01T16:50:59.797Z,12.01
2022-10-01T16:53:27.875Z,12.05
2022-10-01T16:55:58.094Z,12.08
2022-10-01T16:58:26.874Z,12.14
2022-10-01T17:00:55.039Z,12.24
2022-10-01T17:03:24.274Z,12.29
2022-10-01T17:05:52.229Z,12.31
2022-10-01T17:08:20.173Z,12.35
2022-10-01T17:10:52.998Z,12.38
2022-10-01T17:13:22.297Z,12.38
2022-10-01T17:15:51.714Z,12.39
2022-10-01T17:18:20.182Z,12.33
2022-10-01T17:20:48.547Z,12.33
2022-10-01T17:23:18.082Z,12.33
2022-10-01T17:25:47.111Z,12.33
2022-10-01T17:28:16.779Z,12.32
2022-10-01T17:30:48.017Z,12.32
2022-10-01T17:33:19.081Z,12.32
2022-10-01T17:35:51.495Z,12.33
2022-10-01T17:38:19.782Z,12.38
2022-10-01T17:40:47.853Z,12.41
2022-10-01T17:43:17.313Z,12.42
2022-10-01T17:45:52.380Z,12.49
2022-10-01T17:48:21.933Z,12.53
2022-10-01T17:50:59.035Z,12.61
2022-10-01T17:53:32.462Z,12.62
2022-10-01T17:56:06.318Z,12.68
2022-10-01T17:58:34.292Z,12.70
2022-10-01T18:01:03.665Z,12.76
2022-10-01T18:03:31.611Z,12.76
2022-10-01T18:06:03.549Z,12.70
2022-10-01T18:08:51.259Z,12.66
2022-10-01T18:11:20.336Z,12.65
2022-10-01T18:13:48.590Z,12.61
2022-10-01T18:16:19.425Z,12.56
2022-10-01T18:21:35.761Z,12.48
2022-10-01T18:24:04.988Z,12.45
2022-10-01T18:26:33.945Z,12.44
2022-10-01T18:29:02.328Z,12.42
2022-10-01T18:31:34.553Z,12.38
2022-10-01T18:34:03.629Z,12.35
2022-10-01T18:36:41.453Z,12.36
2022-10-01T18:39:15.323Z,12.32
2022-10-01T18:41:43.952Z,12.29
2022-10-01T18:44:18.005Z,12.28
2022-10-01T18:46:58.324Z,12.24
2022-10-01T18:49:47.521Z,12.20
2022-10-01T18:52:19.563Z,12.12
2022-10-01T18:54:56.053Z,12.10
2022-10-01T18:57:33.199Z,12.07
2022-10-01T19:00:09.896Z,12.04
2022-10-01T19:02:53.392Z,11.97
2022-10-01T19:05:41.848Z,11.97
2022-10-01T19:08:20.808Z,11.94
2022-10-01T19:10:51.762Z,11.90
2022-10-01T19:13:23.872Z,11.89
2022-10-01T19:16:01.411Z,11.84
2022-10-01T19:18:50.468Z,11.80
2022-10-01T19:21:24.992Z,11.73
2022-10-01T19:24:07.352Z,11.64
2022-10-01T19:26:39.784Z,11.59
2022-10-01T19:29:12.293Z,11.52
2022-10-01T19:31:46.536Z,11.46
2022-10-01T19:34:19.089Z,11.39
2022-10-01T19:36:51.917Z,11.28
2022-10-01T19:39:21.260Z,11.21
2022-10-01T19:41:52.809Z,11.14
2022-10-01T19:44:25.514Z,11.08
2022-10-01T19:46:55.692Z,10.99
2022-10-01T19:49:30.515Z,10.91
2022-10-01T19:52:00.891Z,10.87
2022-10-01T19:54:32.111Z,10.80
2022-10-01T19:57:06.475Z,10.74
2022-10-01T19:59:34.444Z,10.67
2022-10-01T20:02:07.781Z,10.64
2022-10-01T20:04:39.079Z,10.60
2022-10-01T20:07:12.223Z,10.59
2022-10-01T20:09:45.385Z,10.55
2022-10-01T20:12:21.469Z,10.49
2022-10-01T20:15:13.424Z,10.47
2022-10-01T20:17:53.216Z,10.40
2022-10-01T20:20:25.237Z,10.36
2022-10-01T20:23:06.617Z,10.32
2022-10-01T20:25:41.271Z,10.30
2022-10-01T20:28:13.878Z,10.30
2022-10-01T20:30:50.742Z,10.30
2022-10-01T20:33:24.854Z,10.29
2022-10-01T20:35:59.994Z,10.30
2022-10-01T20:38:31.963Z,10.29
2022-10-01T20:41:03.985Z,10.26
2022-10-01T20:43:34.675Z,10.26
2022-10-01T20:46:07.070Z,10.26
2022-10-01T20:48:36.621Z,10.26
2022-10-01T20:51:08.585Z,10.20
2022-10-01T20:53:39.971Z,10.19
2022-10-01T20:56:15.628Z,10.19
2022-10-01T20:58:49.069Z,10.20
2022-10-01T21:01:20.405Z,10.15
2022-10-01T21:03:50.875Z,10.12
2022-10-01T21:06:25.478Z,10.16
2022-10-01T21:08:57.956Z,10.15
2022-10-01T21:11:30.491Z,10.16
2022-10-01T21:14:06.133Z,10.13
2022-10-01T21:16:56.585Z,10.15
2022-10-01T21:19:37.175Z,10.16
2022-10-01T21:22:17.420Z,10.15
2022-10-01T21:24:55.670Z,10.16
2022-10-01T21:27:38.860Z,10.12
2022-10-01T21:30:09.908Z,10.15
2022-10-01T21:32:56.837Z,10.16
2022-10-01T21:35:37.857Z,10.15
2022-10-01T21:38:12.154Z,10.10
2022-10-01T21:40:49.753Z,10.08
2022-10-01T21:43:26.799Z,10.08
2022-10-01T21:46:02.528Z,10.06
2022-10-01T21:48:41.428Z,10.02
2022-10-01T21:51:17.049Z,9.99
2022-10-01T21:54:03.913Z,9.99
2022-10-01T21:56:43.770Z,9.98
2022-10-01T21:59:20.539Z,9.92
2022-10-01T22:01:56.142Z,9.94
2022-10-01T22:04:32.041Z,9.91
2022-10-01T22:07:04.462Z,9.91
2022-10-01T22:09:34.682Z,9.88
2022-10-01T22:12:03.577Z,9.82
2022-10-01T22:14:31.942Z,9.82
2022-10-01T22:20:00.056Z,9.81
2022-10-01T22:22:31.291Z,9.82
2022-10-01T22:25:01.296Z,9.81
2022-10-01T22:27:34.126Z,9.79
2022-10-01T22:30:07.931Z,9.77
2022-10-01T22:32:40.675Z,9.75
2022-10-01T22:35:13.623Z,9.77
2022-10-01T22:37:45.349Z,9.77
2022-10-01T22:40:18.002Z,9.75
2022-10-01T22:42:51.236Z,9.75
2022-10-01T22:45:19.559Z,9.75
2022-10-01T22:47:59.717Z,9.73
2022-10-01T22:50:35.663Z,9.73
2022-10-01T22:53:13.612Z,9.73
2022-10-01T22:55:49.168Z,9.73
2022-10-01T22:58:36.549Z,9.73
2022-10-01T23:01:11.462Z,9.70
2022-10-01T23:03:50.640Z,9.73
2022-10-01T23:06:25.903Z,9.73
2022-10-01T23:09:01.661Z,9.73
2022-10-01T23:11:35.922Z,9.71
2022-10-01T23:14:09.483Z,9.73
2022-10-01T23:16:44.929Z,9.73
2022-10-01T23:19:26.553Z,9.75
2022-10-01T23:22:01.937Z,9.74
2022-10-01T23:24:43.088Z,9.77
2022-10-01T23:27:21.638Z,9.78
2022-10-01T23:29:59.812Z,9.82
2022-10-01T23:32:42.535Z,9.89
2022-10-01T23:35:14.420Z,9.95
2022-10-01T23:37:58.401Z,9.98
2022-10-01T23:40:29.424Z,9.99
2022-10-01T23:43:03.335Z,10.05
2022-10-01T23:45:34.976Z,10.08
2022-10-01T23:48:06.078Z,10.10
2022-10-01T23:50:37.853Z,10.09
2022-10-01T23:53:13.660Z,10.13
2022-10-01T23:56:08.557Z,10.13
2022-10-01T23:58:43.732Z,10.18
